Dati Storici

Data ora Umidita' aria (%) Temperatura aria (°C) Rad globale (W/m²) Gonioanemometro (°) Tacoanemometro (m/s) Pioggia (mm)
20-10-2012 10:00 94.3 % 10.524 160.368 30.194 0.712 0
20-10-2012 09:50 94.3 % 10.339 143.438 69.448 0.784 0
20-10-2012 09:40 94.4 % 10.174 133.593 38.458 1.73 0
20-10-2012 09:30 94.4 % 10.058 121.836 16.138 1.184 0
20-10-2012 09:20 94.4 % 9.847 93.803 344.355 0.992 0
20-10-2012 09:10 94.1 % 9.51 111.259 43.104 0.235 0
20-10-2012 09:00 94.4 % 9.568 92.04 23.958 0.578 0
20-10-2012 08:50 94.1 % 9.203 86.958 348.155 1.398 0
20-10-2012 08:40 94.5 % 9.608 80.391 332.061 1.323 0
20-10-2012 08:30 94.5 % 9.612 64.592 25.731 0.862 0
20-10-2012 08:20 94.3 % 9.422 48.141 14.456 0.695 0
20-10-2012 08:10 94.2 % 9.382 35.825 11.694 0.821 0
20-10-2012 08:00 94.4 % 9.642 27.6 27.6 1.383 0
20-10-2012 07:50 94.3 % 9.7 19.054 36.657 0.506 0
20-10-2012 07:40 94.3 % 9.678 9.108 174.158 0.001 0
20-10-2012 07:30 94.3 % 9.664 7.189 160.327 0.135 0
20-10-2012 07:20 94.1 % 9.557 4.346 319.451 0.093 0
20-10-2012 07:10 93.9 % 9.502 2.488 340.716 0.382 0
20-10-2012 07:00 94 % 9.592 2.527 68.857 0.015 0
20-10-2012 06:50 94 % 9.729 2.527 73.98 0.485 0

I dati sono presentati in modo automatico a scopo informativo. In seguito a verifica i dati possono subire modifiche o essere invalidati e non riportati negli archivi definitivi.